FW8585 Weather Reports


Display with metric or nautical units.
time (UTC)temp
F
wind
direction
speed
MPH
gust
MPH
rain 1hr
in
rain 24hr
in
rain mn
in
humidity
%
barometer
mb
20210625042319 82 113 4.0 5.0 0.00 0.00 0.00 78 1014.4
20210625041408 82 119 2.0 5.0 0.00 0.00 0.00 78 1014.4
20210625040407 82 113 2.0 3.0 0.00 0.00 0.00 78 1014.2
20210625035506 82 131 2.0 3.0 0.00 0.00 0.00 78 1014.1
20210625035408 82 263 1.0 2.0 0.00 0.00 0.00 78 1014.1
20210625035344 82 123 2.0 4.0 0.00 0.00 0.00 78 1014.0
20210625034324 82 128 2.0 5.0 0.00 0.00 0.00 77 1013.9
20210625034206 82 110 2.0 4.0 0.00 0.00 0.00 76 1013.9
20210625033223 83 116 4.0 6.0 0.00 0.00 0.00 76 1013.9
20210625032306 83 150 6.0 10.0 0.00 0.00 0.00 75 1013.7
20210625031308 83 131 3.0 8.0 0.00 0.00 0.00 75 1014.0
20210625031209 83 127 3.0 4.0 0.00 0.00 0.00 75 1013.9
20210625030208 83 125 5.0 8.0 0.00 0.00 0.00 75 1013.9
20210625025306 83 120 4.0 7.0 0.00 0.00 0.00 75 1013.7
20210625024306 84 125 3.0 4.0 0.00 0.00 0.00 75 1013.4
20210625024208 84 110 4.0 9.0 0.00 0.00 0.00 75 1013.5
20210625023206 84 125 5.0 7.0 0.00 0.00 0.00 75 1013.3
20210625022306 84 119 3.0 6.0 0.00 0.00 0.00 75 1013.2
20210625021306 84 125 2.0 3.0 0.00 0.00 0.00 75 1013.0
20210625021222 84 105 3.0 6.0 0.00 0.00 0.00 75 1013.1
20210625020223 85 103 3.0 7.0 0.00 0.00 0.00 76 1013.1
20210625020109 85 102 4.0 6.0 0.00 0.00 0.00 76 1013.1
20210625020008 85 113 5.0 8.0 0.00 0.00 0.00 76 1013.1
20210625015008 85 105 3.0 5.0 0.00 0.00 0.00 75 1013.1
20210625014922 85 95 3.0 6.0 0.00 0.00 0.00 75 1013.1
20210625014808 85 108 2.0 4.0 0.00 0.00 0.00 75 1013.1
20210625013808 86 118 4.0 6.0 0.00 0.00 0.00 73 1013.1
20210625013723 86 120 4.0 7.0 0.00 0.00 0.00 73 1013.0
20210625012708 87 98 5.0 10.0 0.00 0.00 0.00 69 1013.1
20210625011706 87 118 6.0 10.0 0.00 0.00 0.00 68 1013.1
20210625010722 87 110 7.0 11.0 0.00 0.00 0.00 67 1013.2
20210625010607 87 112 5.0 8.0 0.00 0.00 0.00 67 1013.2
20210625005606 88 112 6.0 9.0 0.00 0.00 0.00 67 1013.0
20210625005506 88 121 7.0 11.0 0.00 0.00 0.00 67 1013.0
20210625005406 88 110 5.0 9.0 0.00 0.00 0.00 68 1013.0
20210625004424 89 107 6.0 11.0 0.00 0.00 0.00 70 1012.8
20210625004307 89 92 6.0 11.0 0.00 0.00 0.00 70 1012.8
20210625004208 89 105 4.0 7.0 0.00 0.00 0.00 69 1012.9
20210625003222 89 100 4.0 8.0 0.00 0.00 0.00 69 1013.0
20210625003105 90 107 4.0 7.0 0.00 0.00 0.00 69 1013.0
20210625003007 90 99 7.0 12.0 0.00 0.00 0.00 69 1013.0
20210625002006 90 97 7.0 12.0 0.00 0.00 0.00 64 1012.8
20210625001905 90 101 7.0 12.0 0.00 0.00 0.00 64 1012.8
20210625000921 91 138 6.0 9.0 0.00 0.00 0.00 62 1012.8
20210624235909 92 106 7.0 14.0 0.00 0.00 0.00 62 1012.9
20210624234906 93 95 6.0 9.0 0.00 0.00 0.00 60 1012.8
20210624234806 93 106 7.0 13.0 0.00 0.00 0.00 60 1013.0
20210624234708 93 92 4.0 11.0 0.00 0.00 0.00 60 1012.9
20210624233807 93 111 7.0 12.0 0.00 0.00 0.00 60 1012.8
20210624233706 93 107 6.0 12.0 0.00 0.00 0.00 59 1012.8
20210624233606 93 107 5.0 11.0 0.00 0.00 0.00 59 1012.8
20210624232606 93 108 5.0 11.0 0.00 0.00 0.00 58 1012.8
20210624231606 93 125 3.0 6.0 0.00 0.00 0.00 58 1012.8
20210624230622 92 115 7.0 13.0 0.00 0.00 0.00 60 1012.9
20210624230505 92 115 6.0 15.0 0.00 0.00 0.00 60 1012.8
20210624225522 92 103 4.0 7.0 0.00 0.00 0.00 61 1012.7
20210624225422 92 108 5.0 10.0 0.00 0.00 0.00 60 1012.6
20210624225307 92 122 8.0 11.0 0.00 0.00 0.00 60 1012.7
20210624224305 93 109 4.0 9.0 0.00 0.00 0.00 61 1012.5
20210624224207 93 107 8.0 14.0 0.00 0.00 0.00 61 1012.4
20210624223207 93 114 7.0 11.0 0.00 0.00 0.00 61 1012.4
20210624223107 93 119 6.0 12.0 0.00 0.00 0.00 61 1012.6
20210624223006 93 122 3.0 9.0 0.00 0.00 0.00 61 1012.5
20210624222007 93 123 2.0 6.0 0.00 0.00 0.00 62 1012.7
20210624221105 93 100 6.0 11.0 0.00 0.00 0.00 61 1012.7
20210624220105 92 114 7.0 12.0 0.00 0.00 0.00 63 1013.0
20210624220021 92 100 6.0 11.0 0.00 0.00 0.00 63 1012.9
20210624215007 91 98 3.0 6.0 0.00 0.00 0.00 63 1013.0
20210624213105 92 109 9.0 13.0 0.00 0.00 0.00 64 1013.1
20210624213006 92 115 7.0 12.0 0.00 0.00 0.00 64 1013.1
20210624212008 92 129 5.0 8.0 0.00 0.00 0.00 64 1013.3
20210624211906 92 120 5.0 10.0 0.00 0.00 0.00 64 1013.3
20210624211809 92 130 5.0 8.0 0.00 0.00 0.00 64 1013.2
20210624210808 92 145 2.0 5.0 0.00 0.00 0.00 63 1013.3
20210624210705 92 115 3.0 6.0 0.00 0.00 0.00 63 1013.3
20210624205707 92 84 5.0 11.0 0.00 0.00 0.00 64 1013.4
20210624204805 91 101 5.0 8.0 0.00 0.00 0.00 65 1013.6
20210624203807 89 42 4.0 6.0 0.00 0.00 0.00 67 1013.6
20210624202821 90 295 5.0 8.0 0.00 0.00 0.00 66 1013.6
20210624201905 87 337 2.0 4.0 0.00 0.00 0.00 71 1013.5
20210624201806 86 326 0.0 2.0 0.00 0.00 0.00 71 1013.4
20210624200905 85 45 0.0 0.0 0.00 0.00 0.00 73 1013.6
20210624195909 84 294 1.0 3.0 0.00 0.00 0.00 76 1013.9
20210624195005 84 303 2.0 4.0 0.00 0.00 0.00 76 1014.0
20210624194104 84 313 2.0 4.0 0.00 0.00 0.00 78 1014.3
20210624193105 85 266 4.0 6.0 0.00 0.00 0.00 74 1014.6
20210624193006 86 287 5.0 8.0 0.00 0.00 0.00 74 1014.5
20210624192007 88 177 2.0 4.0 0.00 0.00 0.00 70 1014.5
20210624191922 88 138 0.0 2.0 0.00 0.00 0.00 70 1014.5
20210624191806 88 149 2.0 4.0 0.00 0.00 0.00 70 1014.5
20210624190807 88 255 4.0 5.0 0.00 0.00 0.00 68 1014.3
20210624185906 88 219 3.0 5.0 0.00 0.00 0.00 67 1014.5
20210624184921 88 251 3.0 5.0 0.00 0.00 0.00 67 1014.6
20210624183921 88 210 4.0 7.0 0.00 0.00 0.00 66 1014.5
20210624182905 90 155 3.0 6.0 0.00 0.00 0.00 63 1014.7
20210624181906 92 118 5.0 7.0 0.00 0.00 0.00 66 1014.6
20210624181806 92 111 5.0 11.0 0.00 0.00 0.00 66 1014.5
20210624180806 92 132 8.0 13.0 0.00 0.00 0.00 67 1014.7
20210624180705 92 103 10.0 16.0 0.00 0.00 0.00 67 1014.6
20210624180621 92 107 8.0 15.0 0.00 0.00 0.00 67 1014.7
20210624175706 92 127 8.0 11.0 0.00 0.00 0.00 67 1014.8
20210624174721 92 111 5.0 11.0 0.00 0.00 0.00 67 1014.9
20210624173804 92 116 9.0 14.0 0.00 0.00 0.00 67 1015.1
20210624173721 92 111 7.0 10.0 0.00 0.00 0.00 67 1015.2
20210624173608 92 126 7.0 13.0 0.00 0.00 0.00 66 1015.1
20210624173523 92 121 7.0 12.0 0.00 0.00 0.00 66 1015.0
20210624172506 91 104 5.0 9.0 0.00 0.00 0.00 64 1015.3
20210624172406 91 118 4.0 12.0 0.00 0.00 0.00 64 1015.4
20210624171406 92 170 8.0 12.0 0.00 0.00 0.00 62 1015.3
20210624171306 92 146 8.0 12.0 0.00 0.00 0.00 62 1015.3
20210624171204 92 137 9.0 11.0 0.00 0.00 0.00 62 1015.3
20210624170222 92 122 10.0 16.0 0.00 0.00 0.00 63 1015.0
20210624165306 91 179 6.0 11.0 0.00 0.00 0.00 67 1015.3
20210624164320 90 212 5.0 9.0 0.00 0.00 0.00 67 1015.5
20210624164207 90 188 6.0 9.0 0.00 0.00 0.00 66 1015.4
20210624163205 91 128 6.0 12.0 0.00 0.00 0.00 67 1015.3
20210624163122 91 125 10.0 15.0 0.00 0.00 0.00 67 1015.2
20210624163005 91 130 7.0 11.0 0.00 0.00 0.00 67 1015.3
20210624162022 90 139 5.0 8.0 0.00 0.00 0.00 67 1015.4
20210624161007 90 177 4.0 6.0 0.00 0.00 0.00 68 1015.5
20210624160104 89 146 2.0 4.0 0.00 0.00 0.00 70 1015.6
20210624160007 89 173 1.0 3.0 0.00 0.00 0.00 70 1015.7
20210624155004 89 181 3.0 6.0 0.00 0.00 0.00 71 1015.8
20210624154007 88 149 2.0 4.0 0.00 0.00 0.00 73 1015.6
20210624153905 88 170 2.0 5.0 0.00 0.00 0.00 73 1015.7
20210624152905 87 144 1.0 3.0 0.00 0.00 0.00 75 1015.7
20210624152821 87 180 0.0 2.0 0.00 0.00 0.00 75 1015.8
20210624151905 88 202 4.0 6.0 0.00 0.00 0.00 75 1015.8
20210624150920 87 225 1.0 4.0 0.00 0.00 0.00 76 1015.6
20210624145904 86 157 2.0 4.0 0.00 0.00 0.00 76 1015.8
20210624144921 87 153 2.0 4.0 0.00 0.00 0.00 77 1015.9
20210624144006 86 143 5.0 6.0 0.00 0.00 0.00 78 1016.0
20210624143906 86 112 4.0 7.0 0.00 0.00 0.00 78 1015.9
20210624142905 86 152 2.0 4.0 0.00 0.00 0.00 78 1015.9
20210624142822 86 129 2.0 3.0 0.00 0.00 0.00 78 1015.9
20210624142721 86 134 3.0 4.0 0.00 0.00 0.00 78 1015.9
20210624141721 86 139 2.0 4.0 0.00 0.00 0.00 79 1016.0
20210624141621 86 109 4.0 7.0 0.00 0.00 0.00 79 1015.8
20210624140606 86 172 2.0 4.0 0.00 0.00 0.00 80 1015.9
20210624135608 86 159 2.0 4.0 0.00 0.00 0.00 80 1015.6
20210624134620 85 109 2.0 5.0 0.00 0.00 0.00 82 1015.6
20210624134505 85 109 1.0 4.0 0.00 0.00 0.00 82 1015.7
20210624133506 84 103 3.0 4.0 0.00 0.00 0.00 83 1015.5
20210624132505 83 131 2.0 3.0 0.00 0.00 0.00 84 1015.8
20210624131605 82 116 1.0 3.0 0.00 0.00 0.00 85 1015.6
20210624131522 82 121 3.0 4.0 0.00 0.00 0.00 86 1015.8
20210624130520 81 112 0.0 1.0 0.00 0.00 0.00 87 1015.6
20210624130404 81 112 0.0 1.0 0.00 0.00 0.00 88 1015.6
20210624130307 81 107 2.0 5.0 0.00 0.00 0.00 88 1015.6
20210624125406 80 70 3.0 5.0 0.00 0.00 0.00 89 1015.5
20210624124408 79 67 3.0 4.0 0.00 0.00 0.00 90 1015.4
20210624123504 78 70 4.0 5.0 0.00 0.00 0.00 91 1015.4
20210624123406 78 86 4.0 5.0 0.00 0.00 0.00 92 1015.5
20210624123306 78 69 5.0 6.0 0.00 0.00 0.00 92 1015.5
20210624122306 78 68 5.0 6.0 0.00 0.00 0.00 93 1015.4
20210624121321 78 80 3.0 4.0 0.00 0.00 0.00 93 1015.4
20210624120405 77 45 1.0 1.0 0.00 0.00 0.00 93 1015.5
20210624120305 77 45 1.0 2.0 0.00 0.00 0.00 93 1015.6
20210624115405 77 37 2.0 3.0 0.00 0.00 0.00 92 1015.4
20210624114406 77 67 1.0 2.0 0.00 0.00 0.00 92 1015.3
20210624113505 77 67 0.0 1.0 0.00 0.00 0.00 93 1015.2
20210624113445 77 67 1.0 1.0 0.00 0.00 0.00 92 1015.3
20210624112305 77 67 1.0 1.0 0.00 0.00 0.00 92 1015.4
20210624112207 77 67 1.0 1.0 0.00 0.00 0.00 92 1015.3
20210624111203 77 67 1.0 1.0 0.00 0.00 0.00 92 1015.2
20210624110207 77 67 1.0 1.0 0.00 0.00 0.00 92 1015.4
20210624105206 77 67 1.0 2.0 0.00 0.00 0.00 92 1015.3
20210624104206 77 67 0.0 1.0 0.00 0.00 0.00 92 1015.2
20210624103204 77 67 0.0 1.0 0.00 0.00 0.00 91 1015.1
20210624103104 78 67 0.0 1.0 0.00 0.00 0.00 91 1015.1
20210624102106 78 67 0.0 0.0 0.00 0.00 0.00 91 1015.2
20210624101205 78 67 0.0 0.0 0.00 0.00 0.00 91 1015.1
20210624100205 78 67 0.0 0.0 0.00 0.00 0.00 91 1015.1
20210624100104 78 67 0.0 0.0 0.00 0.00 0.00 91 1015.1
20210624095107 78 67 0.0 0.0 0.00 0.00 0.00 91 1015.1
20210624094105 78 67 1.0 1.0 0.00 0.00 0.00 90 1015.2
20210624094007 78 67 1.0 1.0 0.00 0.00 0.00 90 1015.1
20210624093104 78 90 1.0 2.0 0.00 0.00 0.00 90 1014.9
20210624092106 78 90 2.0 3.0 0.00 0.00 0.00 90 1015.0
20210624091204 78 90 0.0 1.0 0.00 0.00 0.00 90 1015.0
20210624091106 78 90 0.0 1.0 0.00 0.00 0.00 90 1015.0
20210624091023 78 90 0.0 1.0 0.00 0.00 0.00 90 1014.9
20210624090105 78 90 1.0 1.0 0.00 0.00 0.00 90 1015.0
20210624090005 78 90 0.0 1.0 0.00 0.00 0.00 90 1014.9
20210624085904 78 90 1.0 1.0 0.00 0.00 0.00 90 1015.0
20210624084906 78 90 1.0 2.0 0.00 0.00 0.00 90 1014.9
20210624083920 78 90 1.0 2.0 0.00 0.00 0.00 89 1015.1
20210624083004 78 90 2.0 2.0 0.00 0.00 0.00 89 1015.0
20210624082905 78 270 1.0 2.0 0.00 0.00 0.00 88 1015.0
20210624082847 78 90 2.0 2.0 0.00 0.00 0.00 88 1015.0